createdAt,value
2022-09-15T00:02:04.488Z,98973.41
2022-09-15T00:12:24.206Z,98952.83
2022-09-15T00:22:35.583Z,98956.44
2022-09-15T00:32:44.845Z,98952.64
2022-09-15T00:42:53.622Z,98963.27
2022-09-15T00:53:39.834Z,98966.95
2022-09-15T01:03:48.918Z,98961.34
2022-09-15T01:13:59.582Z,98947.02
2022-09-15T01:25:03.251Z,98937.48
2022-09-15T01:35:58.983Z,98919.56
2022-09-15T01:46:40.521Z,98914.64
2022-09-15T01:57:21.466Z,98909.98
2022-09-15T02:08:36.577Z,98909.64
2022-09-15T02:19:31.821Z,98901.58
2022-09-15T02:29:40.375Z,98884.98
2022-09-15T02:39:51.773Z,98876.53
2022-09-15T02:49:55.712Z,98871.05
2022-09-15T03:00:14.026Z,98870.84
2022-09-15T03:10:21.934Z,98874.02
2022-09-15T03:20:31.238Z,98865.69
2022-09-15T03:30:45.585Z,98861.75
2022-09-15T03:41:19.032Z,98861.30
2022-09-15T03:51:27.641Z,98862.51
2022-09-15T04:01:36.575Z,98871.23
2022-09-15T04:12:22.269Z,98878.02
2022-09-15T04:22:41.211Z,98875.19
2022-09-15T04:33:07.041Z,98867.10
2022-09-15T04:43:26.038Z,98850.68
2022-09-15T04:53:36.000Z,98854.21
2022-09-15T05:03:47.407Z,98861.45
2022-09-15T05:13:58.599Z,98864.50
2022-09-15T05:24:07.351Z,98862.08
2022-09-15T05:34:21.607Z,98864.11
2022-09-15T05:45:29.186Z,98872.77
2022-09-15T05:55:41.062Z,98874.38
2022-09-15T06:05:47.039Z,98883.61
2022-09-15T06:15:50.402Z,98891.13
2022-09-15T06:25:56.628Z,98889.09
2022-09-15T06:36:03.406Z,98887.17
2022-09-15T06:46:14.063Z,98895.17
2022-09-15T06:56:26.886Z,98904.06
2022-09-15T07:06:47.566Z,98911.42
2022-09-15T07:17:13.820Z,98909.05
2022-09-15T07:27:26.409Z,98922.35
2022-09-15T07:37:29.948Z,98929.27
2022-09-15T07:47:36.338Z,98940.15
2022-09-15T07:57:42.442Z,98953.28
2022-09-15T08:08:02.108Z,98956.23
2022-09-15T08:18:25.803Z,98962.44
2022-09-15T08:28:32.244Z,98958.22
2022-09-15T08:38:42.353Z,98961.98
2022-09-15T08:48:59.663Z,98959.23
2022-09-15T08:59:17.425Z,98963.55
2022-09-15T09:09:42.196Z,98966.77
2022-09-15T09:20:34.500Z,98966.95
2022-09-15T09:30:40.929Z,98962.98
2022-09-15T09:40:49.704Z,98965.10
2022-09-15T09:51:55.355Z,98957.42
2022-09-15T10:02:19.055Z,98951.33
2022-09-15T10:12:39.931Z,98949.65
2022-09-15T10:22:46.158Z,98945.42
2022-09-15T10:33:26.450Z,98949.85
2022-09-15T10:44:00.338Z,98948.86
2022-09-15T10:54:36.428Z,98941.07
2022-09-15T11:04:42.670Z,98957.13
2022-09-15T11:15:07.667Z,98948.59
2022-09-15T11:25:25.496Z,98950.02
2022-09-15T11:35:42.610Z,98950.92
2022-09-15T11:45:55.785Z,98945.71
2022-09-15T11:56:32.412Z,98937.27
2022-09-15T12:06:45.762Z,98937.66
2022-09-15T12:16:50.484Z,98938.34
2022-09-15T12:26:59.170Z,98946.13
2022-09-15T12:37:31.637Z,98950.35
2022-09-15T12:48:15.831Z,98953.98
2022-09-15T12:59:03.273Z,98953.48
2022-09-15T13:09:43.681Z,98946.80
2022-09-15T13:19:53.283Z,98937.85
2022-09-15T13:30:31.571Z,98938.98
2022-09-15T13:41:28.392Z,98931.36
2022-09-15T13:51:35.694Z,98918.48
2022-09-15T14:01:59.777Z,98904.12
2022-09-15T14:12:15.249Z,98903.84
2022-09-15T14:22:21.439Z,98901.85
2022-09-15T14:32:28.138Z,98895.61
2022-09-15T14:42:36.596Z,98890.45
2022-09-15T14:52:53.536Z,98879.13
2022-09-15T15:03:08.867Z,98876.46
2022-09-15T15:13:16.773Z,98868.41
2022-09-15T15:23:26.908Z,98868.01
2022-09-15T15:33:33.718Z,98858.53
2022-09-15T15:43:58.984Z,98854.88
2022-09-15T15:54:20.790Z,98858.15
2022-09-15T16:04:27.225Z,98863.41
2022-09-15T16:14:36.085Z,98866.59
2022-09-15T16:24:44.605Z,98864.17
2022-09-15T16:34:52.791Z,98869.05
2022-09-15T16:44:56.071Z,98875.74
2022-09-15T16:55:02.158Z,98875.73
2022-09-15T17:05:16.470Z,98885.58
2022-09-15T17:15:30.170Z,98888.56
2022-09-15T17:25:49.096Z,98899.98
2022-09-15T17:35:57.613Z,98898.62
2022-09-15T17:46:09.666Z,98891.88
2022-09-15T17:56:25.260Z,98898.54
2022-09-15T18:06:44.731Z,98909.20
2022-09-15T18:16:57.500Z,98904.95
2022-09-15T18:27:03.003Z,98906.61
2022-09-15T18:37:09.343Z,98907.87
2022-09-15T18:47:18.771Z,98904.75
2022-09-15T18:57:25.337Z,98904.77
2022-09-15T19:07:28.773Z,98913.02
2022-09-15T19:17:40.684Z,98917.58
2022-09-15T19:27:48.207Z,98917.54
2022-09-15T19:37:54.031Z,98919.73
2022-09-15T19:48:23.510Z,98923.45
2022-09-15T19:58:30.155Z,98925.21
2022-09-15T20:08:41.628Z,98933.48
2022-09-15T20:18:48.831Z,98939.84
2022-09-15T20:29:05.651Z,98940.30
2022-09-15T20:39:13.383Z,98932.89
2022-09-15T20:49:17.162Z,98934.70
2022-09-15T20:59:26.340Z,98938.21
2022-09-15T21:09:35.909Z,98944.93
2022-09-15T21:19:53.144Z,98943.31
2022-09-15T21:30:02.724Z,98947.52
2022-09-15T21:40:10.281Z,98956.82
2022-09-15T21:50:19.415Z,98965.90
2022-09-15T22:01:04.254Z,98978.70
2022-09-15T22:11:34.138Z,98980.61
2022-09-15T22:21:46.716Z,98982.87
2022-09-15T22:32:10.111Z,98994.55
2022-09-15T22:42:26.252Z,99004.39
2022-09-15T22:52:37.830Z,99011.58
2022-09-15T23:02:44.502Z,99012.39
2022-09-15T23:12:50.002Z,99014.21
2022-09-15T23:23:09.128Z,99022.48
2022-09-15T23:33:18.631Z,99019.77
2022-09-15T23:43:24.851Z,99017.55
2022-09-15T23:53:36.075Z,99027.84
